createdAt,value
2018-12-05T00:00:27.424Z,86.13
2018-12-05T00:00:58.543Z,85.86
2018-12-05T00:01:29.661Z,85.92
2018-12-05T00:02:00.784Z,86.22
2018-12-05T00:02:31.912Z,86.63
2018-12-05T00:03:03.047Z,86.95
2018-12-05T00:03:34.169Z,87.12
2018-12-05T00:04:05.327Z,87.17
2018-12-05T00:04:36.445Z,87.02
2018-12-05T00:05:07.579Z,87.26
2018-12-05T00:05:38.701Z,86.86
2018-12-05T00:06:09.817Z,86.70
2018-12-05T00:06:40.932Z,87.16
2018-12-05T00:07:12.113Z,87.14
2018-12-05T00:07:43.273Z,87.06
2018-12-05T00:08:14.390Z,86.69
2018-12-05T00:08:45.518Z,86.67
2018-12-05T00:09:16.636Z,86.67
2018-12-05T00:09:47.757Z,86.94
2018-12-05T00:10:18.878Z,86.58
2018-12-05T00:10:49.997Z,86.67
2018-12-05T00:11:21.118Z,86.47
2018-12-05T00:11:52.233Z,86.63
2018-12-05T00:12:23.384Z,86.69
2018-12-05T00:12:54.513Z,86.57
2018-12-05T00:13:25.665Z,86.65
2018-12-05T00:13:56.799Z,87.11
2018-12-05T00:14:27.962Z,87.04
2018-12-05T00:14:59.085Z,87.25
2018-12-05T00:15:30.236Z,87.14
2018-12-05T00:16:01.383Z,87.13
2018-12-05T00:16:32.521Z,87.11
2018-12-05T00:17:03.633Z,86.70
2018-12-05T00:17:34.750Z,86.61
2018-12-05T00:18:05.865Z,86.83
2018-12-05T00:18:37.015Z,86.21
2018-12-05T00:19:08.132Z,86.15
2018-12-05T00:19:39.301Z,86.31
2018-12-05T00:20:10.418Z,86.51
2018-12-05T00:20:41.542Z,86.43
2018-12-05T00:21:12.675Z,86.85
2018-12-05T00:21:43.795Z,86.81
2018-12-05T00:22:14.925Z,86.81
2018-12-05T00:22:46.051Z,86.73
2018-12-05T00:23:17.159Z,86.89
2018-12-05T00:23:48.271Z,86.53
2018-12-05T00:24:19.394Z,86.90
2018-12-05T00:24:51.215Z,86.74
2018-12-05T00:25:22.379Z,86.50
2018-12-05T00:25:53.488Z,86.46
2018-12-05T00:26:24.601Z,86.64
2018-12-05T00:26:55.721Z,86.21
2018-12-05T00:27:26.834Z,86.39
2018-12-05T00:27:57.946Z,86.34
2018-12-05T00:28:29.071Z,85.99
2018-12-05T00:29:00.177Z,86.09
2018-12-05T00:29:31.290Z,86.37
2018-12-05T00:30:02.444Z,85.84
2018-12-05T00:30:33.565Z,85.82
2018-12-05T00:31:04.680Z,86.04
2018-12-05T00:31:35.791Z,85.89
2018-12-05T00:32:06.940Z,85.81
2018-12-05T00:32:38.095Z,85.50
2018-12-05T00:33:09.216Z,85.72
2018-12-05T00:33:40.425Z,85.76
2018-12-05T00:34:11.689Z,85.64
2018-12-05T00:34:42.797Z,86.11
2018-12-05T00:35:13.953Z,85.79
2018-12-05T00:35:45.182Z,85.64
2018-12-05T00:36:16.298Z,85.99
2018-12-05T00:36:47.428Z,85.77
2018-12-05T00:37:18.557Z,86.13
2018-12-05T00:37:49.661Z,85.95
2018-12-05T00:38:20.786Z,86.07
2018-12-05T00:38:51.910Z,85.71
2018-12-05T00:39:23.034Z,85.22
2018-12-05T00:39:54.186Z,85.49
2018-12-05T00:40:25.294Z,84.93
2018-12-05T00:40:56.396Z,84.90
2018-12-05T00:41:27.549Z,84.99
2018-12-05T00:41:58.716Z,84.86
2018-12-05T00:42:29.833Z,85.04
2018-12-05T00:43:00.950Z,84.64
2018-12-05T00:43:32.066Z,84.54
2018-12-05T00:44:03.176Z,84.91
2018-12-05T00:44:34.280Z,84.90
2018-12-05T00:45:05.405Z,84.38
2018-12-05T00:45:36.519Z,84.80
2018-12-05T00:46:07.637Z,84.72
2018-12-05T00:46:38.754Z,84.86
2018-12-05T00:47:09.906Z,85.20
2018-12-05T00:47:42.235Z,85.22
2018-12-05T00:48:13.351Z,85.16
2018-12-05T00:48:44.464Z,85.03
2018-12-05T00:49:15.581Z,85.15
2018-12-05T00:49:46.703Z,85.68
2018-12-05T00:50:17.817Z,85.23
2018-12-05T00:50:48.925Z,85.53
2018-12-05T00:51:20.087Z,85.35
2018-12-05T00:51:51.199Z,85.23
2018-12-05T00:52:22.324Z,85.03
2018-12-05T00:52:53.423Z,84.96
2018-12-05T00:53:24.559Z,84.83
2018-12-05T00:53:55.669Z,84.59
2018-12-05T00:54:26.900Z,84.35
2018-12-05T00:54:57.999Z,83.77
2018-12-05T00:55:29.155Z,83.71
2018-12-05T00:56:00.260Z,84.00
2018-12-05T00:56:31.397Z,83.73
2018-12-05T00:57:02.536Z,83.24
2018-12-05T00:57:33.644Z,83.24
2018-12-05T00:58:04.761Z,83.41
2018-12-05T00:58:35.907Z,83.04
2018-12-05T00:59:07.021Z,83.43
2018-12-05T00:59:38.189Z,83.21
2018-12-05T01:00:09.304Z,83.01
2018-12-05T01:00:40.402Z,83.28
2018-12-05T01:01:11.516Z,83.45
2018-12-05T01:01:42.621Z,83.66
2018-12-05T01:02:13.749Z,83.22
2018-12-05T01:02:44.853Z,83.15
2018-12-05T01:03:16.000Z,83.23
2018-12-05T01:03:47.105Z,83.48
2018-12-05T01:04:18.221Z,83.31
2018-12-05T01:04:49.326Z,83.37
2018-12-05T01:05:20.477Z,83.19
2018-12-05T01:05:51.577Z,83.21
2018-12-05T01:06:22.708Z,83.22
2018-12-05T01:06:53.817Z,83.02
2018-12-05T01:07:24.931Z,83.28
2018-12-05T01:07:56.024Z,83.08
2018-12-05T01:08:27.124Z,83.24
2018-12-05T01:08:58.228Z,82.99
2018-12-05T01:09:29.329Z,83.34
2018-12-05T01:10:00.434Z,83.42
2018-12-05T01:10:31.580Z,83.65
2018-12-05T01:11:02.681Z,83.42
2018-12-05T01:11:33.794Z,83.56
2018-12-05T01:12:04.910Z,83.29
2018-12-05T01:12:36.634Z,83.36
2018-12-05T01:13:07.734Z,82.79
2018-12-05T01:13:38.843Z,82.71
2018-12-05T01:14:09.945Z,82.15
2018-12-05T01:14:41.036Z,82.28
2018-12-05T01:15:12.153Z,82.08
2018-12-05T01:15:43.333Z,82.04
2018-12-05T01:16:14.485Z,82.02
2018-12-05T01:16:45.646Z,81.80
2018-12-05T01:17:16.764Z,82.04
2018-12-05T01:17:47.870Z,82.15
2018-12-05T01:18:18.972Z,81.86
2018-12-05T01:18:50.122Z,82.04
2018-12-05T01:19:21.927Z,82.56
2018-12-05T01:19:53.030Z,82.24
2018-12-05T01:20:24.125Z,82.42
2018-12-05T01:20:55.233Z,82.27
2018-12-05T01:21:26.347Z,82.35
2018-12-05T01:21:57.486Z,82.28
2018-12-05T01:22:28.584Z,81.72
2018-12-05T01:22:59.736Z,81.51
2018-12-05T01:23:30.844Z,82.03
2018-12-05T01:24:01.965Z,81.52
2018-12-05T01:24:33.073Z,81.50
2018-12-05T01:25:04.199Z,81.59
2018-12-05T01:25:35.338Z,81.29
2018-12-05T01:26:06.476Z,82.04
2018-12-05T01:26:37.581Z,81.88
2018-12-05T01:27:09.821Z,81.54
2018-12-05T01:27:40.941Z,81.43
2018-12-05T01:28:12.098Z,81.59
2018-12-05T01:28:43.208Z,81.72
2018-12-05T01:29:14.357Z,81.48
2018-12-05T01:29:45.499Z,81.69
2018-12-05T01:30:16.736Z,81.17
2018-12-05T01:30:47.883Z,81.22
2018-12-05T01:31:18.977Z,81.65
2018-12-05T01:31:50.086Z,81.67
2018-12-05T01:32:21.223Z,82.25
2018-12-05T01:32:52.330Z,82.53
2018-12-05T01:33:23.459Z,82.91
2018-12-05T01:33:54.590Z,82.35
2018-12-05T01:34:25.697Z,82.66
2018-12-05T01:34:56.822Z,82.28
2018-12-05T01:35:27.937Z,81.82
2018-12-05T01:35:59.056Z,81.74
2018-12-05T01:36:30.165Z,81.80
2018-12-05T01:37:01.321Z,81.84
2018-12-05T01:37:32.444Z,81.81
2018-12-05T01:38:03.561Z,82.13
2018-12-05T01:38:34.684Z,82.16
2018-12-05T01:39:05.789Z,82.37
2018-12-05T01:39:36.893Z,82.56
2018-12-05T01:40:07.997Z,82.39
2018-12-05T01:40:39.518Z,82.32
2018-12-05T01:41:10.617Z,82.55
2018-12-05T01:41:41.724Z,82.33
2018-12-05T01:42:12.894Z,81.87
2018-12-05T01:42:44.034Z,82.21
2018-12-05T01:43:15.140Z,81.89
2018-12-05T01:43:46.266Z,81.68
2018-12-05T01:44:17.371Z,82.02
2018-12-05T01:44:48.495Z,82.24
2018-12-05T01:45:19.602Z,82.24
2018-12-05T01:45:50.718Z,82.06
2018-12-05T01:46:21.871Z,81.84
2018-12-05T01:46:53.032Z,82.00
2018-12-05T01:47:24.149Z,82.57
2018-12-05T01:47:55.284Z,82.53
2018-12-05T01:48:26.386Z,82.75
2018-12-05T01:48:57.516Z,82.36
2018-12-05T01:49:28.626Z,82.66
2018-12-05T01:49:59.733Z,82.64
2018-12-05T01:50:30.852Z,82.49
2018-12-05T01:51:01.959Z,83.00
2018-12-05T01:51:33.122Z,82.41
2018-12-05T01:52:04.227Z,82.54
2018-12-05T01:52:35.395Z,82.43
2018-12-05T01:53:06.509Z,82.59
2018-12-05T01:53:38.457Z,82.68
2018-12-05T01:54:09.581Z,82.06
2018-12-05T01:54:40.685Z,82.38
2018-12-05T01:55:11.790Z,82.17
2018-12-05T01:55:42.929Z,81.84
2018-12-05T01:56:14.051Z,82.12
2018-12-05T01:56:45.154Z,82.33
2018-12-05T01:57:16.274Z,82.19
2018-12-05T01:57:47.394Z,82.16
2018-12-05T01:58:18.516Z,82.23
2018-12-05T01:58:49.640Z,82.33
2018-12-05T01:59:20.745Z,82.36
2018-12-05T01:59:51.840Z,82.41
2018-12-05T02:00:22.984Z,82.23
2018-12-05T02:00:54.083Z,82.45
2018-12-05T02:01:25.255Z,82.24
2018-12-05T02:01:56.405Z,82.72
2018-12-05T02:02:27.597Z,82.41
2018-12-05T02:02:58.762Z,82.66
2018-12-05T02:03:29.881Z,82.63
2018-12-05T02:04:00.994Z,82.91
2018-12-05T02:04:32.097Z,82.87
2018-12-05T02:05:03.230Z,82.60
2018-12-05T02:05:34.376Z,82.46
2018-12-05T02:06:05.481Z,82.44
2018-12-05T02:06:36.573Z,82.44
2018-12-05T02:07:07.678Z,82.84
2018-12-05T02:07:38.784Z,82.92
2018-12-05T02:08:09.882Z,83.00
2018-12-05T02:08:40.984Z,82.82
2018-12-05T02:09:12.097Z,83.12
2018-12-05T02:09:43.228Z,82.69
2018-12-05T02:10:14.331Z,83.28
2018-12-05T02:10:45.487Z,82.66
2018-12-05T02:11:16.602Z,82.98
2018-12-05T02:11:47.746Z,83.01
2018-12-05T02:12:18.895Z,82.83
2018-12-05T02:12:50.001Z,82.95
2018-12-05T02:13:21.121Z,82.92
2018-12-05T02:13:52.217Z,82.73
2018-12-05T02:14:23.341Z,83.09
2018-12-05T02:14:54.454Z,83.18
2018-12-05T02:15:25.568Z,83.64
2018-12-05T02:15:56.728Z,83.41
2018-12-05T02:16:27.833Z,83.08
2018-12-05T02:16:58.973Z,83.17
2018-12-05T02:17:30.133Z,83.58
2018-12-05T02:18:01.244Z,83.65
2018-12-05T02:18:32.355Z,83.31
2018-12-05T02:19:03.512Z,83.56
2018-12-05T02:19:34.752Z,83.62
2018-12-05T02:20:05.855Z,83.51
2018-12-05T02:20:36.970Z,83.88
2018-12-05T02:21:08.079Z,83.83
2018-12-05T02:21:39.187Z,83.50
2018-12-05T02:22:10.301Z,83.99
2018-12-05T02:22:41.408Z,83.99
2018-12-05T02:23:12.572Z,83.99
2018-12-05T02:23:43.686Z,84.15
2018-12-05T02:24:14.812Z,84.06
2018-12-05T02:24:45.958Z,84.21
2018-12-05T02:25:17.098Z,84.22
2018-12-05T02:25:48.257Z,84.31
2018-12-05T02:26:19.400Z,84.61
2018-12-05T02:26:50.507Z,84.51
2018-12-05T02:27:21.613Z,84.56
2018-12-05T02:27:52.729Z,84.86
2018-12-05T02:28:23.885Z,85.06
2018-12-05T02:28:54.997Z,85.18
2018-12-05T02:29:27.249Z,85.18
2018-12-05T02:29:58.394Z,85.37
2018-12-05T02:30:29.545Z,85.81
2018-12-05T02:31:00.673Z,85.27
2018-12-05T02:31:31.801Z,85.62
2018-12-05T02:32:03.968Z,85.91
2018-12-05T02:32:35.078Z,86.19
2018-12-05T02:33:06.194Z,85.93
2018-12-05T02:33:37.320Z,85.80
2018-12-05T02:34:08.456Z,85.62
2018-12-05T02:34:39.573Z,86.16
2018-12-05T02:35:10.749Z,85.87
2018-12-05T02:35:41.857Z,85.89
2018-12-05T02:36:12.974Z,86.25
2018-12-05T02:36:44.089Z,86.12
2018-12-05T02:37:15.204Z,85.86
2018-12-05T02:37:46.332Z,86.12
2018-12-05T02:38:17.447Z,85.68
2018-12-05T02:38:48.566Z,85.69
2018-12-05T02:39:19.691Z,85.75
2018-12-05T02:39:50.877Z,85.59
2018-12-05T02:40:22.026Z,85.45
2018-12-05T02:40:53.171Z,85.77
2018-12-05T02:41:24.276Z,85.53
2018-12-05T02:41:55.387Z,85.76
2018-12-05T02:42:26.501Z,86.04
2018-12-05T02:42:57.651Z,85.93
2018-12-05T02:43:28.856Z,85.75
2018-12-05T02:43:59.972Z,85.83
2018-12-05T02:44:31.097Z,85.47
2018-12-05T02:45:02.300Z,85.86
2018-12-05T02:45:33.575Z,85.85
2018-12-05T02:46:04.681Z,85.51
2018-12-05T02:46:35.782Z,85.74
2018-12-05T02:47:06.927Z,85.86
2018-12-05T02:47:38.070Z,85.54
2018-12-05T02:48:09.186Z,85.47
2018-12-05T02:48:40.308Z,85.45
2018-12-05T02:49:11.421Z,85.71
2018-12-05T02:49:42.525Z,85.63
2018-12-05T02:50:13.642Z,85.97
2018-12-05T02:50:44.747Z,85.80
2018-12-05T02:51:15.863Z,85.67
2018-12-05T02:51:46.970Z,85.71
2018-12-05T02:52:18.091Z,85.36
2018-12-05T02:52:49.237Z,85.89
2018-12-05T02:53:20.358Z,85.99
2018-12-05T02:53:51.476Z,85.80
2018-12-05T02:54:22.622Z,85.86
2018-12-05T02:54:53.737Z,86.26
2018-12-05T02:55:24.836Z,86.60
2018-12-05T02:55:55.950Z,86.54
2018-12-05T02:56:27.096Z,87.13
2018-12-05T02:56:58.224Z,86.84
2018-12-05T02:57:29.339Z,87.13
2018-12-05T02:58:00.522Z,87.53
2018-12-05T02:58:31.701Z,86.97
2018-12-05T02:59:02.814Z,87.46
2018-12-05T02:59:33.921Z,87.50
2018-12-05T03:00:05.047Z,87.62
2018-12-05T03:00:36.164Z,86.99
2018-12-05T03:01:07.309Z,87.26
2018-12-05T03:01:38.422Z,86.92
2018-12-05T03:02:09.583Z,86.80
2018-12-05T03:02:40.745Z,86.94
2018-12-05T03:03:11.854Z,86.80
2018-12-05T03:03:42.974Z,86.82
2018-12-05T03:04:14.084Z,86.82
2018-12-05T03:04:45.218Z,87.15
2018-12-05T03:05:16.327Z,87.00
2018-12-05T03:05:47.437Z,86.75
2018-12-05T03:06:18.545Z,87.02
2018-12-05T03:06:49.670Z,87.11
2018-12-05T03:07:20.794Z,87.18
2018-12-05T03:07:51.976Z,86.82
2018-12-05T03:08:23.186Z,86.99
2018-12-05T03:08:54.357Z,86.60
2018-12-05T03:09:25.516Z,86.79
2018-12-05T03:09:56.619Z,86.93
2018-12-05T03:10:27.748Z,86.82
2018-12-05T03:10:58.864Z,86.47
2018-12-05T03:11:29.981Z,86.77
2018-12-05T03:12:01.092Z,86.86
2018-12-05T03:12:32.211Z,86.81
2018-12-05T03:13:03.339Z,86.91
2018-12-05T03:13:34.456Z,87.21
2018-12-05T03:14:05.586Z,87.00
2018-12-05T03:14:36.740Z,87.11
2018-12-05T03:15:07.869Z,87.33
2018-12-05T03:15:39.037Z,87.20
2018-12-05T03:16:10.149Z,87.25
2018-12-05T03:16:41.267Z,87.25
2018-12-05T03:17:12.368Z,87.31
2018-12-05T03:17:43.475Z,87.30
2018-12-05T03:18:14.580Z,87.52
2018-12-05T03:18:45.726Z,87.54
2018-12-05T03:19:16.842Z,87.46
2018-12-05T03:19:47.985Z,87.64
2018-12-05T03:20:19.147Z,87.52
2018-12-05T03:20:50.270Z,87.63
2018-12-05T03:21:21.543Z,87.50
2018-12-05T03:21:52.685Z,87.82
2018-12-05T03:22:23.795Z,87.67
2018-12-05T03:22:54.920Z,87.88
2018-12-05T03:23:26.046Z,88.18
2018-12-05T03:23:57.154Z,88.08
2018-12-05T03:24:28.273Z,88.12
2018-12-05T03:24:59.421Z,88.09
2018-12-05T03:25:30.540Z,88.35
2018-12-05T03:26:01.683Z,88.23
2018-12-05T03:26:32.837Z,88.30
2018-12-05T03:27:03.995Z,88.51
2018-12-05T03:27:35.114Z,88.42
2018-12-05T03:28:06.297Z,88.48
2018-12-05T03:28:37.409Z,88.51
2018-12-05T03:29:08.534Z,88.56
2018-12-05T03:29:39.636Z,88.52
2018-12-05T03:30:10.763Z,88.63
2018-12-05T03:30:41.924Z,88.74
2018-12-05T03:31:13.106Z,88.91
2018-12-05T03:31:44.221Z,88.99
2018-12-05T03:32:15.363Z,89.06
2018-12-05T03:32:46.530Z,89.14
2018-12-05T03:33:17.700Z,88.89
2018-12-05T03:33:48.829Z,89.02
2018-12-05T03:34:19.946Z,89.16
2018-12-05T03:34:51.068Z,88.99
2018-12-05T03:35:22.180Z,88.98
2018-12-05T03:35:53.293Z,89.26
2018-12-05T03:36:24.402Z,89.37
2018-12-05T03:36:55.558Z,89.61
2018-12-05T03:37:26.683Z,89.62
2018-12-05T03:37:57.830Z,89.84
2018-12-05T03:38:28.971Z,89.89
2018-12-05T03:39:00.074Z,90.12
2018-12-05T03:39:31.189Z,90.20
2018-12-05T03:40:02.306Z,90.51
2018-12-05T03:40:33.534Z,90.49
2018-12-05T03:41:04.681Z,90.61
2018-12-05T03:41:35.822Z,90.78
2018-12-05T03:42:06.929Z,90.73
2018-12-05T03:42:38.044Z,91.01
2018-12-05T03:43:09.178Z,90.99
2018-12-05T03:43:40.285Z,91.11
2018-12-05T03:44:11.399Z,91.30
2018-12-05T03:44:42.511Z,91.34
2018-12-05T03:45:13.637Z,91.64
2018-12-05T03:45:44.793Z,91.65
2018-12-05T03:46:15.922Z,91.53
2018-12-05T03:46:47.078Z,91.73
2018-12-05T03:47:18.189Z,91.65
2018-12-05T03:47:49.293Z,91.78
2018-12-05T03:48:20.396Z,91.58
2018-12-05T03:48:51.498Z,91.61
2018-12-05T03:49:22.615Z,91.74
2018-12-05T03:49:53.850Z,91.81
2018-12-05T03:50:24.957Z,91.58
2018-12-05T03:50:56.063Z,91.76
2018-12-05T03:51:27.241Z,91.64
2018-12-05T03:51:58.351Z,91.28
2018-12-05T03:52:29.469Z,91.76
2018-12-05T03:53:00.573Z,91.85
2018-12-05T03:53:31.730Z,91.97
2018-12-05T03:54:02.845Z,91.85
2018-12-05T03:54:33.969Z,92.06
2018-12-05T03:55:05.078Z,91.98
2018-12-05T03:55:36.178Z,92.07
2018-12-05T03:56:07.286Z,92.28
2018-12-05T03:56:38.442Z,92.09
2018-12-05T03:57:09.550Z,92.16
2018-12-05T03:57:40.675Z,91.91
2018-12-05T03:58:11.820Z,92.09
2018-12-05T03:58:42.932Z,92.08
2018-12-05T03:59:14.045Z,91.91
2018-12-05T03:59:45.162Z,92.07
2018-12-05T04:00:16.291Z,91.91
2018-12-05T04:00:47.427Z,91.96
2018-12-05T04:01:18.536Z,91.62
2018-12-05T04:01:49.695Z,91.86
2018-12-05T04:02:20.853Z,91.78
2018-12-05T04:02:51.965Z,91.58
2018-12-05T04:03:23.083Z,91.73
2018-12-05T04:03:54.248Z,91.63
2018-12-05T04:04:25.361Z,91.58
2018-12-05T04:04:56.465Z,91.64
2018-12-05T04:05:27.578Z,91.62
2018-12-05T04:05:58.681Z,91.52
2018-12-05T04:06:29.823Z,91.58
2018-12-05T04:07:00.928Z,91.75
2018-12-05T04:07:32.075Z,91.82
2018-12-05T04:08:03.195Z,91.72
2018-12-05T04:08:34.318Z,91.92
2018-12-05T04:09:05.431Z,91.67
2018-12-05T04:09:36.543Z,91.94
2018-12-05T04:10:07.651Z,91.74
2018-12-05T04:10:38.768Z,91.68
2018-12-05T04:11:09.884Z,91.72
2018-12-05T04:11:40.993Z,91.75
2018-12-05T04:12:12.145Z,91.74
2018-12-05T04:12:43.261Z,91.63
2018-12-05T04:13:14.373Z,91.74
2018-12-05T04:13:45.500Z,91.72
2018-12-05T04:14:16.608Z,91.54
2018-12-05T04:14:47.708Z,91.50
2018-12-05T04:15:18.822Z,91.62
2018-12-05T04:15:49.932Z,91.46
2018-12-05T04:16:21.051Z,91.37
2018-12-05T04:16:52.160Z,91.10
2018-12-05T04:17:23.303Z,90.98
2018-12-05T04:17:54.411Z,90.96
2018-12-05T04:18:25.547Z,90.97
2018-12-05T04:18:56.665Z,90.93
2018-12-05T04:19:27.823Z,90.60
2018-12-05T04:19:58.932Z,90.81
2018-12-05T04:20:30.054Z,91.17
2018-12-05T04:21:01.211Z,91.16
2018-12-05T04:21:32.327Z,91.14
2018-12-05T04:22:03.453Z,91.11
2018-12-05T04:22:34.576Z,91.17
2018-12-05T04:23:05.692Z,90.90
2018-12-05T04:23:36.801Z,90.84
2018-12-05T04:24:08.003Z,90.69
2018-12-05T04:24:39.157Z,90.73
2018-12-05T04:25:10.279Z,90.52
2018-12-05T04:25:41.390Z,90.46
2018-12-05T04:26:12.538Z,90.38
2018-12-05T04:26:43.651Z,90.25
2018-12-05T04:27:14.759Z,90.18
2018-12-05T04:27:45.906Z,90.08
2018-12-05T04:28:17.017Z,90.08
2018-12-05T04:28:48.115Z,90.15
2018-12-05T04:29:19.240Z,90.35
2018-12-05T04:29:50.360Z,90.13
2018-12-05T04:30:21.468Z,89.83
2018-12-05T04:30:52.589Z,89.97
2018-12-05T04:31:23.733Z,89.63
2018-12-05T04:31:54.860Z,89.85
2018-12-05T04:32:25.974Z,89.44
2018-12-05T04:32:57.101Z,89.27
2018-12-05T04:33:28.226Z,89.47
2018-12-05T04:33:59.381Z,89.53
2018-12-05T04:34:30.492Z,89.55
2018-12-05T04:35:01.621Z,89.52
2018-12-05T04:35:32.746Z,89.34
2018-12-05T04:36:03.870Z,89.47
2018-12-05T04:36:35.017Z,89.56
2018-12-05T04:37:06.125Z,89.75
2018-12-05T04:37:37.235Z,89.82
2018-12-05T04:38:08.333Z,90.02
2018-12-05T04:38:39.440Z,90.08
2018-12-05T04:39:11.138Z,90.18
2018-12-05T04:39:42.246Z,90.25
2018-12-05T04:40:13.351Z,90.29
2018-12-05T04:40:44.491Z,90.24
2018-12-05T04:41:15.625Z,90.39
2018-12-05T04:41:46.808Z,90.30
2018-12-05T04:42:17.925Z,90.53
2018-12-05T04:42:49.047Z,90.51
2018-12-05T04:43:20.156Z,90.45
2018-12-05T04:43:51.279Z,90.46
2018-12-05T04:44:22.385Z,90.37
2018-12-05T04:44:53.494Z,90.22
2018-12-05T04:45:24.633Z,89.93
2018-12-05T04:45:55.752Z,89.69
2018-12-05T04:46:26.867Z,89.61
2018-12-05T04:46:58.036Z,89.82
2018-12-05T04:47:29.144Z,89.31
2018-12-05T04:48:00.257Z,89.31
2018-12-05T04:48:31.361Z,89.40
2018-12-05T04:49:02.474Z,89.35
2018-12-05T04:49:33.587Z,89.17
2018-12-05T04:50:04.696Z,89.29
2018-12-05T04:50:35.810Z,89.21
2018-12-05T04:51:06.912Z,89.04
2018-12-05T04:51:38.027Z,89.03
2018-12-05T04:52:09.181Z,88.63
2018-12-05T04:52:40.291Z,89.06
2018-12-05T04:53:11.434Z,88.79
2018-12-05T04:53:42.545Z,88.62
2018-12-05T04:54:13.658Z,88.54
2018-12-05T04:54:44.764Z,88.45
2018-12-05T04:55:15.899Z,88.36
2018-12-05T04:55:47.019Z,88.38
2018-12-05T04:56:18.132Z,88.29
2018-12-05T04:56:49.253Z,88.21
2018-12-05T04:57:20.372Z,87.71
2018-12-05T04:57:51.477Z,88.03
2018-12-05T04:58:22.625Z,88.02
2018-12-05T04:58:53.733Z,88.14
2018-12-05T04:59:24.854Z,88.13
2018-12-05T04:59:55.968Z,87.96
2018-12-05T05:00:27.138Z,87.80
2018-12-05T05:00:58.264Z,88.24
2018-12-05T05:01:29.374Z,88.11
2018-12-05T05:02:00.538Z,87.94
2018-12-05T05:02:31.681Z,87.73
2018-12-05T05:03:02.792Z,87.89
2018-12-05T05:03:33.905Z,88.04
2018-12-05T05:04:05.029Z,87.88
2018-12-05T05:04:36.132Z,87.12
2018-12-05T05:05:07.244Z,86.75
2018-12-05T05:05:38.349Z,87.06
2018-12-05T05:06:09.449Z,87.45
2018-12-05T05:06:41.779Z,87.04
2018-12-05T05:07:13.309Z,87.45
2018-12-05T05:07:44.561Z,87.40
2018-12-05T05:08:15.672Z,87.28
2018-12-05T05:08:46.806Z,87.23
2018-12-05T05:09:17.932Z,87.11
2018-12-05T05:09:49.049Z,87.30
2018-12-05T05:10:20.192Z,87.41
2018-12-05T05:10:51.302Z,87.30
2018-12-05T05:11:22.414Z,87.37
2018-12-05T05:11:53.534Z,88.08
2018-12-05T05:12:24.669Z,88.30
2018-12-05T05:12:55.789Z,88.24
2018-12-05T05:13:26.946Z,88.11
2018-12-05T05:13:58.067Z,87.74
2018-12-05T05:14:29.189Z,87.16
2018-12-05T05:15:00.311Z,86.74
2018-12-05T05:15:31.419Z,86.46
2018-12-05T05:16:02.554Z,86.57
2018-12-05T05:16:33.672Z,86.78
2018-12-05T05:17:04.792Z,86.75
2018-12-05T05:17:35.918Z,86.66
2018-12-05T05:18:07.039Z,86.61
2018-12-05T05:18:38.200Z,86.56
2018-12-05T05:19:09.330Z,86.96
2018-12-05T05:19:40.442Z,87.61
2018-12-05T05:20:12.037Z,87.52
2018-12-05T05:20:43.410Z,87.22
2018-12-05T05:21:14.520Z,86.84
2018-12-05T05:21:45.645Z,86.90
2018-12-05T05:22:16.809Z,87.28
2018-12-05T05:22:47.931Z,87.54
2018-12-05T05:23:19.056Z,87.31
2018-12-05T05:23:50.188Z,87.12
2018-12-05T05:24:21.296Z,87.15
2018-12-05T05:24:52.552Z,87.39
2018-12-05T05:25:23.661Z,87.28
2018-12-05T05:25:54.783Z,87.75
2018-12-05T05:26:25.901Z,87.60
2018-12-05T05:26:57.016Z,87.30
2018-12-05T05:27:28.152Z,86.73
2018-12-05T05:27:59.280Z,86.54
2018-12-05T05:28:30.393Z,86.00
2018-12-05T05:29:01.500Z,85.42
2018-12-05T05:29:32.615Z,85.58
2018-12-05T05:30:03.749Z,85.71
2018-12-05T05:30:34.880Z,85.73
2018-12-05T05:31:06.005Z,85.71
2018-12-05T05:31:37.134Z,85.96
2018-12-05T05:32:08.278Z,86.31
2018-12-05T05:32:39.395Z,86.49
2018-12-05T05:33:10.508Z,86.32
2018-12-05T05:33:41.620Z,86.46
2018-12-05T05:34:12.731Z,86.41
2018-12-05T05:34:43.838Z,86.57
2018-12-05T05:35:14.946Z,87.48
2018-12-05T05:35:46.101Z,87.91
2018-12-05T05:36:17.208Z,87.81
2018-12-05T05:36:48.309Z,87.99
2018-12-05T05:37:19.484Z,87.94
2018-12-05T05:37:50.647Z,88.01
2018-12-05T05:38:21.850Z,88.37
2018-12-05T05:38:52.962Z,88.07
2018-12-05T05:39:24.076Z,87.82
2018-12-05T05:39:55.176Z,87.62
2018-12-05T05:40:26.279Z,87.02
2018-12-05T05:40:57.387Z,87.20
2018-12-05T05:41:28.498Z,86.84
2018-12-05T05:41:59.605Z,86.98
2018-12-05T05:42:30.724Z,87.35
2018-12-05T05:43:01.837Z,87.52
2018-12-05T05:43:32.962Z,88.02
2018-12-05T05:44:04.077Z,87.42
2018-12-05T05:44:35.228Z,87.32
2018-12-05T05:45:06.340Z,87.10
2018-12-05T05:45:37.449Z,87.20
2018-12-05T05:46:08.570Z,87.56
2018-12-05T05:46:39.674Z,87.67
2018-12-05T05:47:10.779Z,86.87
2018-12-05T05:47:41.919Z,87.24
2018-12-05T05:48:13.057Z,87.33
2018-12-05T05:48:44.169Z,87.02
2018-12-05T05:49:15.281Z,86.96
2018-12-05T05:49:46.434Z,87.15
2018-12-05T05:50:17.565Z,86.76
2018-12-05T05:50:48.668Z,86.87
2018-12-05T05:51:19.801Z,86.66
2018-12-05T05:51:50.926Z,87.00
2018-12-05T05:52:22.033Z,86.87
2018-12-05T05:52:53.195Z,86.71
2018-12-05T05:53:24.289Z,87.23
2018-12-05T05:53:55.398Z,87.08
2018-12-05T05:54:26.592Z,87.03
2018-12-05T05:54:57.779Z,86.61
2018-12-05T05:55:28.892Z,86.27
2018-12-05T05:56:00.004Z,85.99
2018-12-05T05:56:31.121Z,86.00
2018-12-05T05:57:02.291Z,85.84
2018-12-05T05:57:33.441Z,85.54
2018-12-05T05:58:04.558Z,85.29
2018-12-05T05:58:35.688Z,85.31
2018-12-05T05:59:06.824Z,85.18
2018-12-05T05:59:37.953Z,85.01
2018-12-05T06:00:09.068Z,84.66
2018-12-05T06:00:40.182Z,84.76
2018-12-05T06:01:11.298Z,85.10
2018-12-05T06:01:42.450Z,84.78
2018-12-05T06:02:13.570Z,84.94
2018-12-05T06:02:44.676Z,85.09
2018-12-05T06:03:15.786Z,84.20
2018-12-05T06:03:46.927Z,84.81
2018-12-05T06:04:18.056Z,85.14
2018-12-05T06:04:49.155Z,85.62
2018-12-05T06:05:20.265Z,85.45
2018-12-05T06:05:51.374Z,84.52
2018-12-05T06:06:22.715Z,84.22
2018-12-05T06:06:53.881Z,84.40
2018-12-05T06:07:25.006Z,84.52
2018-12-05T06:07:56.119Z,84.57
2018-12-05T06:08:27.336Z,84.01
2018-12-05T06:08:58.454Z,83.54
2018-12-05T06:09:29.553Z,83.65
2018-12-05T06:10:00.661Z,83.45
2018-12-05T06:10:31.776Z,83.36
2018-12-05T06:11:02.873Z,83.17
2018-12-05T06:11:34.009Z,82.18
2018-12-05T06:12:05.104Z,82.40
2018-12-05T06:12:36.427Z,82.86
2018-12-05T06:13:07.663Z,82.96
2018-12-05T06:13:38.763Z,82.99
2018-12-05T06:14:09.871Z,82.49
2018-12-05T06:14:40.973Z,82.75
2018-12-05T06:15:12.094Z,82.51
2018-12-05T06:15:43.219Z,82.35
2018-12-05T06:16:14.620Z,82.16
2018-12-05T06:16:45.797Z,82.24
2018-12-05T06:17:16.917Z,81.56
2018-12-05T06:17:48.380Z,81.91
2018-12-05T06:18:19.573Z,81.87
2018-12-05T06:18:50.754Z,81.64
2018-12-05T06:19:21.873Z,81.42
2018-12-05T06:19:52.986Z,81.30
2018-12-05T06:20:24.113Z,81.47
2018-12-05T06:20:55.216Z,81.07
2018-12-05T06:21:26.337Z,81.00
2018-12-05T06:21:57.488Z,80.88
2018-12-05T06:22:28.595Z,80.85
2018-12-05T06:22:59.701Z,81.05
2018-12-05T06:23:30.793Z,81.44
2018-12-05T06:24:01.911Z,81.57
2018-12-05T06:24:33.001Z,81.39
2018-12-05T06:25:04.104Z,80.87
2018-12-05T06:25:35.218Z,81.07
2018-12-05T06:26:06.339Z,80.70
2018-12-05T06:26:37.442Z,80.46
2018-12-05T06:27:09.301Z,79.85
2018-12-05T06:27:40.404Z,80.34
2018-12-05T06:28:11.539Z,80.89
2018-12-05T06:28:42.636Z,81.49
2018-12-05T06:29:13.743Z,80.99
2018-12-05T06:29:44.845Z,80.73
2018-12-05T06:30:15.981Z,80.63
2018-12-05T06:30:47.096Z,81.00
2018-12-05T06:31:18.206Z,81.18
2018-12-05T06:31:49.313Z,80.96
2018-12-05T06:32:20.408Z,80.78
2018-12-05T06:32:51.567Z,81.19
2018-12-05T06:33:22.657Z,81.53
2018-12-05T06:33:53.768Z,81.46
2018-12-05T06:34:24.895Z,81.62
2018-12-05T06:34:55.999Z,81.96
2018-12-05T06:35:27.145Z,82.33
2018-12-05T06:35:58.372Z,81.92
2018-12-05T06:36:29.473Z,82.18
2018-12-05T06:37:00.578Z,82.41
2018-12-05T06:37:31.723Z,82.73
2018-12-05T06:38:02.895Z,83.18
2018-12-05T06:38:34.005Z,83.15
2018-12-05T06:39:05.112Z,83.29
2018-12-05T06:39:36.216Z,83.03
2018-12-05T06:40:07.325Z,82.80
2018-12-05T06:40:38.473Z,82.48
2018-12-05T06:41:09.585Z,82.40